sensor_id;sensor_type;location;lat;lon;timestamp;pressure;altitude;pressure_sealevel;temperature;humidity
46448;BME280;32145;50.390;30.778;2023-04-09T00:02:30;100581.97;;;6.44;80.91
46448;BME280;32145;50.390;30.778;2023-04-09T00:05:25;100577.78;;;6.41;80.58
46448;BME280;32145;50.390;30.778;2023-04-09T00:08:19;100590.81;;;6.38;80.65
46448;BME280;32145;50.390;30.778;2023-04-09T00:11:17;100572.69;;;6.31;79.97
46448;BME280;32145;50.390;30.778;2023-04-09T00:14:13;100577.44;;;6.29;80.71
46448;BME280;32145;50.390;30.778;2023-04-09T00:17:10;100567.03;;;6.26;81.09
46448;BME280;32145;50.390;30.778;2023-04-09T00:20:07;100576.53;;;6.22;80.37
46448;BME280;32145;50.390;30.778;2023-04-09T00:23:03;100573.16;;;6.20;80.49
46448;BME280;32145;50.390;30.778;2023-04-09T00:26:00;100572.34;;;6.19;80.92
46448;BME280;32145;50.390;30.778;2023-04-09T00:28:57;100561.56;;;6.19;80.47
46448;BME280;32145;50.390;30.778;2023-04-09T00:31:54;100565.94;;;6.21;80.96
46448;BME280;32145;50.390;30.778;2023-04-09T00:34:50;100561.22;;;6.23;80.63
46448;BME280;32145;50.390;30.778;2023-04-09T00:37:47;100570.41;;;6.28;81.19
46448;BME280;32145;50.390;30.778;2023-04-09T00:40:43;100564.59;;;6.31;81.54
46448;BME280;32145;50.390;30.778;2023-04-09T00:43:43;100571.22;;;6.29;81.61
46448;BME280;32145;50.390;30.778;2023-04-09T00:46:40;100566.78;;;6.21;81.09
46448;BME280;32145;50.390;30.778;2023-04-09T00:49:37;100565.66;;;6.15;80.41
46448;BME280;32145;50.390;30.778;2023-04-09T00:52:33;100568.91;;;6.11;80.33
46448;BME280;32145;50.390;30.778;2023-04-09T00:55:30;100573.00;;;6.06;81.06
46448;BME280;32145;50.390;30.778;2023-04-09T00:58:26;100568.84;;;6.04;80.37
46448;BME280;32145;50.390;30.778;2023-04-09T01:01:22;100567.97;;;6.03;80.48
46448;BME280;32145;50.390;30.778;2023-04-09T01:04:21;100561.59;;;6.04;81.11
46448;BME280;32145;50.390;30.778;2023-04-09T01:07:22;100570.50;;;6.05;80.69
46448;BME280;32145;50.390;30.778;2023-04-09T01:10:28;100573.00;;;6.06;80.76
46448;BME280;32145;50.390;30.778;2023-04-09T01:13:29;100573.44;;;6.10;81.48
46448;BME280;32145;50.390;30.778;2023-04-09T01:16:28;100573.66;;;6.09;81.46
46448;BME280;32145;50.390;30.778;2023-04-09T01:19:36;100580.44;;;6.04;81.27
46448;BME280;32145;50.390;30.778;2023-04-09T01:22:41;100582.16;;;5.97;80.57
46448;BME280;32145;50.390;30.778;2023-04-09T01:25:46;100577.69;;;5.89;80.84
46448;BME280;32145;50.390;30.778;2023-04-09T01:28:45;100578.06;;;5.86;81.00
46448;BME280;32145;50.390;30.778;2023-04-09T01:31:41;100585.13;;;5.87;80.74
46448;BME280;32145;50.390;30.778;2023-04-09T01:34:37;100584.28;;;5.87;80.80
46448;BME280;32145;50.390;30.778;2023-04-09T01:37:32;100583.84;;;5.83;80.90
46448;BME280;32145;50.390;30.778;2023-04-09T01:40:27;100588.56;;;5.81;80.80
46448;BME280;32145;50.390;30.778;2023-04-09T01:43:22;100583.94;;;5.75;81.00
46448;BME280;32145;50.390;30.778;2023-04-09T01:46:21;100596.91;;;5.71;80.46
46448;BME280;32145;50.390;30.778;2023-04-09T01:49:18;100592.25;;;5.65;80.92
46448;BME280;32145;50.390;30.778;2023-04-09T01:52:14;100593.66;;;5.61;80.56
46448;BME280;32145;50.390;30.778;2023-04-09T01:55:11;100594.66;;;5.60;80.91
46448;BME280;32145;50.390;30.778;2023-04-09T01:58:07;100594.66;;;5.60;80.69
46448;BME280;32145;50.390;30.778;2023-04-09T02:01:06;100599.22;;;5.59;81.14
46448;BME280;32145;50.390;30.778;2023-04-09T02:04:08;100598.34;;;5.59;81.08
46448;BME280;32145;50.390;30.778;2023-04-09T02:07:09;100599.38;;;5.58;80.40
46448;BME280;32145;50.390;30.778;2023-04-09T02:10:08;100597.06;;;5.54;80.75
46448;BME280;32145;50.390;30.778;2023-04-09T02:13:07;100600.78;;;5.53;80.85
46448;BME280;32145;50.390;30.778;2023-04-09T02:16:06;100597.59;;;5.50;80.61
46448;BME280;32145;50.390;30.778;2023-04-09T02:19:04;100601.47;;;5.47;80.60
46448;BME280;32145;50.390;30.778;2023-04-09T02:21:59;100597.13;;;5.46;80.84
46448;BME280;32145;50.390;30.778;2023-04-09T02:24:53;100594.81;;;5.43;80.85
46448;BME280;32145;50.390;30.778;2023-04-09T02:27:47;100595.16;;;5.40;80.72
46448;BME280;32145;50.390;30.778;2023-04-09T02:30:42;100597.22;;;5.38;80.58
46448;BME280;32145;50.390;30.778;2023-04-09T02:33:38;100594.53;;;5.38;80.94
46448;BME280;32145;50.390;30.778;2023-04-09T02:36:36;100596.53;;;5.36;80.73
46448;BME280;32145;50.390;30.778;2023-04-09T02:39:30;100599.97;;;5.29;80.86
46448;BME280;32145;50.390;30.778;2023-04-09T02:42:24;100600.31;;;5.26;80.60
46448;BME280;32145;50.390;30.778;2023-04-09T02:45:19;100602.34;;;5.24;80.96
46448;BME280;32145;50.390;30.778;2023-04-09T02:48:13;100602.72;;;5.21;80.97
46448;BME280;32145;50.390;30.778;2023-04-09T02:51:09;100595.66;;;5.20;80.37
46448;BME280;32145;50.390;30.778;2023-04-09T02:54:05;100601.41;;;5.17;80.77
46448;BME280;32145;50.390;30.778;2023-04-09T02:56:59;100598.06;;;5.15;80.82
46448;BME280;32145;50.390;30.778;2023-04-09T02:59:56;100599.06;;;5.14;80.57
46448;BME280;32145;50.390;30.778;2023-04-09T03:02:52;100603.44;;;5.15;80.94
46448;BME280;32145;50.390;30.778;2023-04-09T03:05:48;100598.91;;;5.15;80.55
46448;BME280;32145;50.390;30.778;2023-04-09T03:08:45;100597.03;;;5.16;80.92
46448;BME280;32145;50.390;30.778;2023-04-09T03:11:40;100603.59;;;5.13;80.83
46448;BME280;32145;50.390;30.778;2023-04-09T03:14:35;100604.63;;;5.12;81.11
46448;BME280;32145;50.390;30.778;2023-04-09T03:17:29;100600.47;;;5.10;80.73
46448;BME280;32145;50.390;30.778;2023-04-09T03:20:23;100604.13;;;5.09;80.71
46448;BME280;32145;50.390;30.778;2023-04-09T03:23:20;100593.78;;;5.06;80.59
46448;BME280;32145;50.390;30.778;2023-04-09T03:26:16;100598.66;;;5.02;80.69
46448;BME280;32145;50.390;30.778;2023-04-09T03:29:12;100606.72;;;5.02;80.92
46448;BME280;32145;50.390;30.778;2023-04-09T03:32:06;100608.19;;;5.05;80.76
46448;BME280;32145;50.390;30.778;2023-04-09T03:35:00;100602.47;;;5.08;80.62
46448;BME280;32145;50.390;30.778;2023-04-09T03:37:55;100604.97;;;5.09;80.89
46448;BME280;32145;50.390;30.778;2023-04-09T03:40:49;100602.13;;;5.11;80.71
46448;BME280;32145;50.390;30.778;2023-04-09T03:43:43;100606.28;;;5.13;80.63
46448;BME280;32145;50.390;30.778;2023-04-09T03:46:39;100607.44;;;5.19;80.49
46448;BME280;32145;50.390;30.778;2023-04-09T03:49:34;100613.09;;;5.24;80.73
46448;BME280;32145;50.390;30.778;2023-04-09T03:52:28;100614.06;;;5.32;80.54
46448;BME280;32145;50.390;30.778;2023-04-09T03:55:22;100609.16;;;5.35;80.69
46448;BME280;32145;50.390;30.778;2023-04-09T03:58:16;100614.28;;;5.45;80.81
46448;BME280;32145;50.390;30.778;2023-04-09T04:01:10;100609.47;;;5.55;80.88
46448;BME280;32145;50.390;30.778;2023-04-09T04:04:06;100611.09;;;5.65;80.58
46448;BME280;32145;50.390;30.778;2023-04-09T04:07:02;100622.91;;;5.79;80.86
46448;BME280;32145;50.390;30.778;2023-04-09T04:09:58;100617.63;;;5.86;80.34
46448;BME280;32145;50.390;30.778;2023-04-09T04:12:55;100622.34;;;5.99;80.81
46448;BME280;32145;50.390;30.778;2023-04-09T04:15:51;100612.72;;;6.19;80.28
46448;BME280;32145;50.390;30.778;2023-04-09T04:18:45;100613.19;;;6.38;80.22
46448;BME280;32145;50.390;30.778;2023-04-09T04:21:41;100626.25;;;6.56;80.93
46448;BME280;32145;50.390;30.778;2023-04-09T04:24:35;100622.31;;;6.74;80.37
46448;BME280;32145;50.390;30.778;2023-04-09T04:27:29;100622.91;;;6.91;79.97
46448;BME280;32145;50.390;30.778;2023-04-09T04:30:24;100628.06;;;7.08;80.46
46448;BME280;32145;50.390;30.778;2023-04-09T04:33:18;100627.00;;;7.24;79.85
46448;BME280;32145;50.390;30.778;2023-04-09T04:36:13;100636.84;;;7.39;80.06
46448;BME280;32145;50.390;30.778;2023-04-09T04:39:09;100642.25;;;7.60;79.78
46448;BME280;32145;50.390;30.778;2023-04-09T04:42:03;100633.72;;;7.85;79.54
46448;BME280;32145;50.390;30.778;2023-04-09T04:44:58;100642.97;;;8.05;79.47
46448;BME280;32145;50.390;30.778;2023-04-09T04:47:52;100642.59;;;8.15;79.10
46448;BME280;32145;50.390;30.778;2023-04-09T04:50:53;100643.47;;;8.22;78.81
46448;BME280;32145;50.390;30.778;2023-04-09T04:53:47;100638.72;;;8.24;78.59
46448;BME280;32145;50.390;30.778;2023-04-09T04:56:43;100639.81;;;8.30;78.50
46448;BME280;32145;50.390;30.778;2023-04-09T04:59:38;100640.69;;;8.37;78.31
46448;BME280;32145;50.390;30.778;2023-04-09T05:02:32;100643.63;;;8.49;78.21
46448;BME280;32145;50.390;30.778;2023-04-09T05:05:27;100644.13;;;8.59;78.07
46448;BME280;32145;50.390;30.778;2023-04-09T05:08:21;100652.06;;;8.68;77.87
46448;BME280;32145;50.390;30.778;2023-04-09T05:11:16;100650.44;;;8.80;77.64
46448;BME280;32145;50.390;30.778;2023-04-09T05:14:13;100652.09;;;8.81;77.32
46448;BME280;32145;50.390;30.778;2023-04-09T05:17:09;100654.00;;;8.81;77.07
46448;BME280;32145;50.390;30.778;2023-04-09T05:20:07;100652.50;;;8.78;76.92
46448;BME280;32145;50.390;30.778;2023-04-09T05:23:03;100659.13;;;8.69;76.46
46448;BME280;32145;50.390;30.778;2023-04-09T05:25:59;100658.72;;;8.65;76.54
46448;BME280;32145;50.390;30.778;2023-04-09T05:28:55;100653.13;;;8.67;76.38
46448;BME280;32145;50.390;30.778;2023-04-09T05:31:53;100655.00;;;8.73;76.00
46448;BME280;32145;50.390;30.778;2023-04-09T05:34:49;100647.16;;;8.85;76.04
46448;BME280;32145;50.390;30.778;2023-04-09T05:37:46;100655.69;;;8.95;75.74
46448;BME280;32145;50.390;30.778;2023-04-09T05:40:42;100653.00;;;9.02;75.79
46448;BME280;32145;50.390;30.778;2023-04-09T05:43:39;100651.34;;;9.08;75.08
46448;BME280;32145;50.390;30.778;2023-04-09T05:46:33;100658.47;;;9.15;75.44
46448;BME280;32145;50.390;30.778;2023-04-09T05:49:28;100659.91;;;9.32;75.12
46448;BME280;32145;50.390;30.778;2023-04-09T05:52:23;100667.03;;;9.46;74.59
46448;BME280;32145;50.390;30.778;2023-04-09T05:55:19;100664.31;;;9.53;74.70
46448;BME280;32145;50.390;30.778;2023-04-09T05:58:16;100661.00;;;9.64;74.18
46448;BME280;32145;50.390;30.778;2023-04-09T06:01:13;100662.69;;;9.79;74.30
46448;BME280;32145;50.390;30.778;2023-04-09T06:04:09;100666.59;;;9.97;73.78
46448;BME280;32145;50.390;30.778;2023-04-09T06:07:05;100674.28;;;10.13;73.53
46448;BME280;32145;50.390;30.778;2023-04-09T06:09:59;100673.03;;;10.29;73.43
46448;BME280;32145;50.390;30.778;2023-04-09T06:12:53;100664.44;;;10.39;73.06
46448;BME280;32145;50.390;30.778;2023-04-09T06:15:47;100669.22;;;10.57;72.41
46448;BME280;32145;50.390;30.778;2023-04-09T06:18:42;100667.69;;;10.75;72.31
46448;BME280;32145;50.390;30.778;2023-04-09T06:21:36;100675.72;;;10.95;72.59
46448;BME280;32145;50.390;30.778;2023-04-09T06:24:32;100669.78;;;11.12;71.43
46448;BME280;32145;50.390;30.778;2023-04-09T06:27:26;100683.91;;;11.28;70.88
46448;BME280;32145;50.390;30.778;2023-04-09T06:30:21;100680.06;;;11.42;70.55
46448;BME280;32145;50.390;30.778;2023-04-09T06:33:15;100687.09;;;11.50;70.56
46448;BME280;32145;50.390;30.778;2023-04-09T06:36:09;100688.50;;;11.59;69.90
46448;BME280;32145;50.390;30.778;2023-04-09T06:39:04;100684.25;;;11.70;69.73
46448;BME280;32145;50.390;30.778;2023-04-09T06:42:00;100682.91;;;11.80;69.38
46448;BME280;32145;50.390;30.778;2023-04-09T06:44:54;100682.63;;;11.88;69.12
46448;BME280;32145;50.390;30.778;2023-04-09T06:47:48;100688.13;;;12.07;68.71
46448;BME280;32145;50.390;30.778;2023-04-09T06:50:43;100681.09;;;12.24;68.40
46448;BME280;32145;50.390;30.778;2023-04-09T06:53:38;100680.78;;;12.33;67.77
46448;BME280;32145;50.390;30.778;2023-04-09T06:56:34;100679.28;;;12.37;67.41
46448;BME280;32145;50.390;30.778;2023-04-09T06:59:32;100677.59;;;12.36;67.17
46448;BME280;32145;50.390;30.778;2023-04-09T07:02:26;100682.22;;;12.35;67.16
46448;BME280;32145;50.390;30.778;2023-04-09T07:05:20;100689.31;;;12.36;66.79
46448;BME280;32145;50.390;30.778;2023-04-09T07:08:14;100694.66;;;12.43;66.89
46448;BME280;32145;50.390;30.778;2023-04-09T07:11:09;100688.25;;;12.56;66.58
46448;BME280;32145;50.390;30.778;2023-04-09T07:14:03;100689.69;;;12.78;66.37
46448;BME280;32145;50.390;30.778;2023-04-09T07:16:59;100692.13;;;12.98;66.28
46448;BME280;32145;50.390;30.778;2023-04-09T07:19:53;100693.09;;;13.04;64.98
46448;BME280;32145;50.390;30.778;2023-04-09T07:22:47;100693.41;;;13.14;64.28
46448;BME280;32145;50.390;30.778;2023-04-09T07:25:42;100691.03;;;13.18;63.38
46448;BME280;32145;50.390;30.778;2023-04-09T07:28:36;100686.31;;;13.13;62.81
46448;BME280;32145;50.390;30.778;2023-04-09T07:31:30;100684.53;;;13.19;62.32
46448;BME280;32145;50.390;30.778;2023-04-09T07:34:26;100689.06;;;13.25;62.27
46448;BME280;32145;50.390;30.778;2023-04-09T07:37:20;100691.44;;;13.33;62.11
46448;BME280;32145;50.390;30.778;2023-04-09T07:40:15;100684.72;;;13.36;62.21
46448;BME280;32145;50.390;30.778;2023-04-09T07:43:09;100689.78;;;13.32;62.26
46448;BME280;32145;50.390;30.778;2023-04-09T07:46:06;100688.81;;;13.26;62.38
46448;BME280;32145;50.390;30.778;2023-04-09T07:49:02;100689.03;;;13.13;61.65
46448;BME280;32145;50.390;30.778;2023-04-09T07:52:00;100689.34;;;13.05;61.35
46448;BME280;32145;50.390;30.778;2023-04-09T07:54:56;100693.50;;;13.07;61.33
46448;BME280;32145;50.390;30.778;2023-04-09T07:57:52;100677.34;;;13.24;61.32
46448;BME280;32145;50.390;30.778;2023-04-09T08:00:49;100671.34;;;13.46;60.86
46448;BME280;32145;50.390;30.778;2023-04-09T08:03:45;100673.56;;;13.68;59.79
46448;BME280;32145;50.390;30.778;2023-04-09T08:06:41;100670.16;;;13.85;59.72
46448;BME280;32145;50.390;30.778;2023-04-09T08:09:37;100676.44;;;13.97;59.28
46448;BME280;32145;50.390;30.778;2023-04-09T08:12:32;100683.56;;;14.10;58.55
46448;BME280;32145;50.390;30.778;2023-04-09T08:15:27;100680.47;;;14.18;58.24
46448;BME280;32145;50.390;30.778;2023-04-09T08:18:21;100679.50;;;14.25;58.34
46448;BME280;32145;50.390;30.778;2023-04-09T08:21:16;100676.06;;;14.29;57.50
46448;BME280;32145;50.390;30.778;2023-04-09T08:24:11;100681.28;;;14.31;57.43
46448;BME280;32145;50.390;30.778;2023-04-09T08:27:06;100676.78;;;14.37;57.05
46448;BME280;32145;50.390;30.778;2023-04-09T08:30:01;100673.44;;;14.35;57.31
46448;BME280;32145;50.390;30.778;2023-04-09T08:32:55;100677.84;;;14.36;57.49
46448;BME280;32145;50.390;30.778;2023-04-09T08:35:50;100674.28;;;14.35;57.06
46448;BME280;32145;50.390;30.778;2023-04-09T08:38:46;100662.28;;;14.48;57.44
46448;BME280;32145;50.390;30.778;2023-04-09T08:41:42;100661.53;;;14.65;57.50
46448;BME280;32145;50.390;30.778;2023-04-09T08:44:38;100666.84;;;14.72;56.44
46448;BME280;32145;50.390;30.778;2023-04-09T08:47:33;100660.06;;;14.74;56.86
46448;BME280;32145;50.390;30.778;2023-04-09T08:50:30;100676.53;;;14.91;56.99
46448;BME280;32145;50.390;30.778;2023-04-09T08:53:25;100654.53;;;14.98;56.07
46448;BME280;32145;50.390;30.778;2023-04-09T08:56:19;100652.41;;;15.00;55.10
46448;BME280;32145;50.390;30.778;2023-04-09T08:59:14;100661.97;;;15.15;55.24
46448;BME280;32145;50.390;30.778;2023-04-09T09:02:10;100660.91;;;15.16;54.83
46448;BME280;32145;50.390;30.778;2023-04-09T09:05:05;100668.50;;;15.14;54.74
46448;BME280;32145;50.390;30.778;2023-04-09T09:08:00;100663.19;;;15.07;54.42
46448;BME280;32145;50.390;30.778;2023-04-09T09:10:54;100658.09;;;15.11;54.55
46448;BME280;32145;50.390;30.778;2023-04-09T09:13:57;100660.06;;;15.15;54.45
46448;BME280;32145;50.390;30.778;2023-04-09T09:17:04;100667.38;;;15.27;54.67
46448;BME280;32145;50.390;30.778;2023-04-09T09:20:11;100658.28;;;15.38;54.92
46448;BME280;32145;50.390;30.778;2023-04-09T09:23:13;100661.44;;;15.47;54.74
46448;BME280;32145;50.390;30.778;2023-04-09T09:26:12;100659.59;;;15.36;55.04
46448;BME280;32145;50.390;30.778;2023-04-09T09:29:06;100662.97;;;15.26;54.97
46448;BME280;32145;50.390;30.778;2023-04-09T09:32:01;100651.81;;;15.27;55.37
46448;BME280;32145;50.390;30.778;2023-04-09T09:35:00;100658.84;;;15.23;54.87
46448;BME280;32145;50.390;30.778;2023-04-09T09:38:01;100658.72;;;15.18;54.29
46448;BME280;32145;50.390;30.778;2023-04-09T09:40:57;100662.53;;;15.17;53.71
46448;BME280;32145;50.390;30.778;2023-04-09T09:43:54;100650.59;;;15.06;53.65
46448;BME280;32145;50.390;30.778;2023-04-09T09:46:48;100655.03;;;15.24;54.56
46448;BME280;32145;50.390;30.778;2023-04-09T09:49:42;100652.38;;;15.29;53.43
46448;BME280;32145;50.390;30.778;2023-04-09T09:52:38;100646.50;;;15.38;53.87
46448;BME280;32145;50.390;30.778;2023-04-09T09:55:37;100654.28;;;15.46;54.01
46448;BME280;32145;50.390;30.778;2023-04-09T09:58:36;100644.38;;;15.40;52.82
46448;BME280;32145;50.390;30.778;2023-04-09T10:01:31;100641.81;;;15.33;53.18
46448;BME280;32145;50.390;30.778;2023-04-09T10:04:28;100645.28;;;15.28;53.29
46448;BME280;32145;50.390;30.778;2023-04-09T10:07:22;100652.31;;;15.41;53.99
46448;BME280;32145;50.390;30.778;2023-04-09T10:10:19;100641.91;;;15.55;53.05
46448;BME280;32145;50.390;30.778;2023-04-09T10:13:20;100651.00;;;15.61;53.49
46448;BME280;32145;50.390;30.778;2023-04-09T10:16:19;100646.38;;;15.44;53.45
46448;BME280;32145;50.390;30.778;2023-04-09T10:19:16;100631.47;;;15.52;53.92
46448;BME280;32145;50.390;30.778;2023-04-09T10:22:16;100636.69;;;15.71;53.76
46448;BME280;32145;50.390;30.778;2023-04-09T10:25:13;100631.94;;;15.83;53.54
46448;BME280;32145;50.390;30.778;2023-04-09T10:28:14;100627.47;;;15.77;53.55
46448;BME280;32145;50.390;30.778;2023-04-09T10:31:12;100631.47;;;15.69;54.22
46448;BME280;32145;50.390;30.778;2023-04-09T10:34:09;100614.56;;;15.55;54.03
46448;BME280;32145;50.390;30.778;2023-04-09T10:37:06;100626.41;;;15.44;53.39
46448;BME280;32145;50.390;30.778;2023-04-09T10:40:02;100632.78;;;15.32;52.58
46448;BME280;32145;50.390;30.778;2023-04-09T10:42:57;100612.75;;;15.44;52.96
46448;BME280;32145;50.390;30.778;2023-04-09T10:45:56;100608.09;;;15.79;51.80
46448;BME280;32145;50.390;30.778;2023-04-09T10:49:10;100608.63;;;16.15;51.75
46448;BME280;32145;50.390;30.778;2023-04-09T10:52:09;100608.56;;;16.32;50.98
46448;BME280;32145;50.390;30.778;2023-04-09T10:55:06;100611.63;;;16.36;50.87
46448;BME280;32145;50.390;30.778;2023-04-09T10:58:03;100607.47;;;16.33;51.14
46448;BME280;32145;50.390;30.778;2023-04-09T11:01:00;100608.50;;;16.27;51.31
46448;BME280;32145;50.390;30.778;2023-04-09T11:04:15;100597.69;;;16.38;52.29
46448;BME280;32145;50.390;30.778;2023-04-09T11:07:16;100596.66;;;16.44;51.50
46448;BME280;32145;50.390;30.778;2023-04-09T11:10:12;100588.91;;;16.35;51.33
46448;BME280;32145;50.390;30.778;2023-04-09T11:13:10;100586.28;;;16.23;50.80
46448;BME280;32145;50.390;30.778;2023-04-09T11:16:06;100584.44;;;16.29;51.64
46448;BME280;32145;50.390;30.778;2023-04-09T11:19:03;100579.22;;;16.05;51.96
46448;BME280;32145;50.390;30.778;2023-04-09T11:22:02;100585.41;;;15.78;52.51
46448;BME280;32145;50.390;30.778;2023-04-09T11:24:59;100572.69;;;15.50;53.08
46448;BME280;32145;50.390;30.778;2023-04-09T11:27:55;100567.72;;;15.29;53.69
46448;BME280;32145;50.390;30.778;2023-04-09T11:30:52;100572.34;;;15.29;53.80
46448;BME280;32145;50.390;30.778;2023-04-09T11:33:50;100551.38;;;15.52;53.54
46448;BME280;32145;50.390;30.778;2023-04-09T11:36:47;100560.94;;;15.89;53.28
46448;BME280;32145;50.390;30.778;2023-04-09T11:39:44;100556.91;;;16.14;52.78
46448;BME280;32145;50.390;30.778;2023-04-09T11:42:38;100546.34;;;16.22;53.31
46448;BME280;32145;50.390;30.778;2023-04-09T11:45:32;100548.13;;;16.12;52.77
46448;BME280;32145;50.390;30.778;2023-04-09T11:48:27;100547.75;;;15.85;53.22
46448;BME280;32145;50.390;30.778;2023-04-09T11:51:21;100542.81;;;15.82;52.71
46448;BME280;32145;50.390;30.778;2023-04-09T11:54:16;100536.94;;;16.13;52.03
46448;BME280;32145;50.390;30.778;2023-04-09T11:57:11;100533.16;;;16.19;51.72
46448;BME280;32145;50.390;30.778;2023-04-09T12:00:08;100531.28;;;16.20;52.32
46448;BME280;32145;50.390;30.778;2023-04-09T12:03:03;100535.59;;;16.16;52.08
46448;BME280;32145;50.390;30.778;2023-04-09T12:05:59;100538.84;;;16.13;51.25
46448;BME280;32145;50.390;30.778;2023-04-09T12:08:54;100533.25;;;16.02;50.91
46448;BME280;32145;50.390;30.778;2023-04-09T12:11:51;100523.91;;;15.98;50.46
46448;BME280;32145;50.390;30.778;2023-04-09T12:14:48;100527.19;;;16.00;49.86
46448;BME280;32145;50.390;30.778;2023-04-09T12:17:48;100527.34;;;16.10;49.85
46448;BME280;32145;50.390;30.778;2023-04-09T12:20:46;100532.41;;;16.24;48.89
46448;BME280;32145;50.390;30.778;2023-04-09T12:23:42;100533.16;;;16.42;48.68
46448;BME280;32145;50.390;30.778;2023-04-09T12:26:38;100535.84;;;16.36;48.67
46448;BME280;32145;50.390;30.778;2023-04-09T12:29:34;100523.56;;;16.17;49.09
46448;BME280;32145;50.390;30.778;2023-04-09T12:32:32;100518.16;;;16.00;48.01
46448;BME280;32145;50.390;30.778;2023-04-09T12:35:28;100517.59;;;15.97;48.67
46448;BME280;32145;50.390;30.778;2023-04-09T12:38:25;100517.94;;;15.84;49.35
46448;BME280;32145;50.390;30.778;2023-04-09T12:41:21;100514.84;;;15.75;49.02
46448;BME280;32145;50.390;30.778;2023-04-09T12:44:17;100512.34;;;15.74;49.83
46448;BME280;32145;50.390;30.778;2023-04-09T12:47:14;100503.25;;;15.68;51.07
46448;BME280;32145;50.390;30.778;2023-04-09T12:50:13;100519.00;;;15.61;50.82
46448;BME280;32145;50.390;30.778;2023-04-09T12:53:09;100511.88;;;15.59;51.48
46448;BME280;32145;50.390;30.778;2023-04-09T12:56:04;100512.31;;;15.51;52.40
46448;BME280;32145;50.390;30.778;2023-04-09T12:58:59;100516.63;;;15.47;52.90
46448;BME280;32145;50.390;30.778;2023-04-09T13:01:53;100508.94;;;15.44;53.21
46448;BME280;32145;50.390;30.778;2023-04-09T13:04:47;100514.56;;;15.37;53.74
46448;BME280;32145;50.390;30.778;2023-04-09T13:07:43;100526.16;;;15.27;53.93
46448;BME280;32145;50.390;30.778;2023-04-09T13:10:37;100520.13;;;15.08;55.58
46448;BME280;32145;50.390;30.778;2023-04-09T13:13:31;100520.84;;;14.86;56.88
46448;BME280;32145;50.390;30.778;2023-04-09T13:16:26;100531.38;;;14.65;57.93
46448;BME280;32145;50.390;30.778;2023-04-09T13:19:20;100533.47;;;14.46;59.17
46448;BME280;32145;50.390;30.778;2023-04-09T13:22:14;100545.06;;;14.24;59.85
46448;BME280;32145;50.390;30.778;2023-04-09T13:25:12;100553.28;;;14.00;61.18
46448;BME280;32145;50.390;30.778;2023-04-09T13:28:08;100542.44;;;13.76;61.96
46448;BME280;32145;50.390;30.778;2023-04-09T13:31:05;100550.16;;;13.56;62.95
46448;BME280;32145;50.390;30.778;2023-04-09T13:34:01;100545.13;;;13.40;63.94
46448;BME280;32145;50.390;30.778;2023-04-09T13:36:57;100544.28;;;13.28;64.61
46448;BME280;32145;50.390;30.778;2023-04-09T13:39:51;100549.72;;;13.16;65.23
46448;BME280;32145;50.390;30.778;2023-04-09T13:42:47;100544.84;;;13.06;65.55
46448;BME280;32145;50.390;30.778;2023-04-09T13:45:41;100538.41;;;12.88;65.63
46448;BME280;32145;50.390;30.778;2023-04-09T13:48:36;100557.50;;;12.70;65.98
46448;BME280;32145;50.390;30.778;2023-04-09T13:51:30;100559.00;;;12.54;66.50
46448;BME280;32145;50.390;30.778;2023-04-09T13:54:24;100561.66;;;12.42;66.59
46448;BME280;32145;50.390;30.778;2023-04-09T13:57:19;100555.09;;;12.31;67.11
46448;BME280;32145;50.390;30.778;2023-04-09T14:00:15;100556.72;;;12.20;67.82
46448;BME280;32145;50.390;30.778;2023-04-09T14:03:09;100553.69;;;12.09;67.94
46448;BME280;32145;50.390;30.778;2023-04-09T14:06:04;100547.44;;;12.02;68.48
46448;BME280;32145;50.390;30.778;2023-04-09T14:08:58;100554.63;;;11.96;68.83
46448;BME280;32145;50.390;30.778;2023-04-09T14:11:53;100559.31;;;11.89;68.88
46448;BME280;32145;50.390;30.778;2023-04-09T14:14:47;100556.91;;;11.81;69.02
46448;BME280;32145;50.390;30.778;2023-04-09T14:17:43;100563.22;;;11.75;69.68
46448;BME280;32145;50.390;30.778;2023-04-09T14:20:37;100562.84;;;11.71;70.09
46448;BME280;32145;50.390;30.778;2023-04-09T14:23:32;100564.59;;;11.65;70.11
46448;BME280;32145;50.390;30.778;2023-04-09T14:26:26;100579.03;;;11.59;70.36
46448;BME280;32145;50.390;30.778;2023-04-09T14:29:23;100571.78;;;11.53;70.59
46448;BME280;32145;50.390;30.778;2023-04-09T14:32:19;100563.47;;;11.47;71.12
46448;BME280;32145;50.390;30.778;2023-04-09T14:35:17;100567.09;;;11.41;71.05
46448;BME280;32145;50.390;30.778;2023-04-09T14:38:15;100567.31;;;11.40;72.12
46448;BME280;32145;50.390;30.778;2023-04-09T14:41:11;100563.75;;;11.39;72.02
46448;BME280;32145;50.390;30.778;2023-04-09T14:44:07;100564.38;;;11.41;72.14
46448;BME280;32145;50.390;30.778;2023-04-09T14:47:03;100562.25;;;11.43;72.08
46448;BME280;32145;50.390;30.778;2023-04-09T14:50:00;100552.47;;;11.42;71.75
46448;BME280;32145;50.390;30.778;2023-04-09T14:52:57;100564.38;;;11.41;72.09
46448;BME280;32145;50.390;30.778;2023-04-09T14:55:54;100561.66;;;11.41;71.91
46448;BME280;32145;50.390;30.778;2023-04-09T14:58:50;100557.25;;;11.40;72.39
46448;BME280;32145;50.390;30.778;2023-04-09T15:01:46;100554.56;;;11.40;72.22
46448;BME280;32145;50.390;30.778;2023-04-09T15:04:43;100557.47;;;11.39;72.36
46448;BME280;32145;50.390;30.778;2023-04-09T15:07:39;100555.59;;;11.39;72.71
46448;BME280;32145;50.390;30.778;2023-04-09T15:10:37;100548.53;;;11.38;73.41
46448;BME280;32145;50.390;30.778;2023-04-09T15:13:34;100543.09;;;11.38;72.94